sensor_id;sensor_type;location;lat;lon;timestamp;pressure;altitude;pressure_sealevel;temperature;humidity
66703;BME280;60933;46.398;-63.798;2024-01-07T00:00:05;102196.25;;;-12.94;92.31
66703;BME280;60933;46.398;-63.798;2024-01-07T00:02:34;102182.66;;;-12.89;91.20
66703;BME280;60933;46.398;-63.798;2024-01-07T00:05:02;102181.00;;;-12.79;90.13
66703;BME280;60933;46.398;-63.798;2024-01-07T00:07:31;102171.66;;;-12.73;89.60
66703;BME280;60933;46.398;-63.798;2024-01-07T00:09:59;102181.41;;;-12.66;88.57
66703;BME280;60933;46.398;-63.798;2024-01-07T00:12:27;102181.38;;;-12.57;88.08
66703;BME280;60933;46.398;-63.798;2024-01-07T00:14:55;102179.63;;;-12.49;86.36
66703;BME280;60933;46.398;-63.798;2024-01-07T00:17:24;102178.41;;;-12.44;85.76
66703;BME280;60933;46.398;-63.798;2024-01-07T00:19:54;102191.53;;;-12.36;85.21
66703;BME280;60933;46.398;-63.798;2024-01-07T00:22:24;102188.72;;;-12.31;84.43
66703;BME280;60933;46.398;-63.798;2024-01-07T00:24:52;102191.94;;;-12.23;83.68
66703;BME280;60933;46.398;-63.798;2024-01-07T00:27:23;102188.84;;;-12.20;82.79
66703;BME280;60933;46.398;-63.798;2024-01-07T00:29:51;102193.09;;;-12.19;82.30
66703;BME280;60933;46.398;-63.798;2024-01-07T00:32:19;102194.09;;;-12.17;81.76
66703;BME280;60933;46.398;-63.798;2024-01-07T00:34:47;102198.19;;;-12.18;81.82
66703;BME280;60933;46.398;-63.798;2024-01-07T00:37:19;102203.78;;;-12.20;82.21
66703;BME280;60933;46.398;-63.798;2024-01-07T00:39:48;102208.16;;;-12.18;81.80
66703;BME280;60933;46.398;-63.798;2024-01-07T00:42:18;102208.75;;;-12.20;82.31
66703;BME280;60933;46.398;-63.798;2024-01-07T00:44:47;102216.06;;;-12.22;81.88
66703;BME280;60933;46.398;-63.798;2024-01-07T00:47:16;102207.31;;;-12.27;81.61
66703;BME280;60933;46.398;-63.798;2024-01-07T00:49:44;102211.44;;;-12.28;81.94
66703;BME280;60933;46.398;-63.798;2024-01-07T00:52:21;102223.16;;;-12.27;82.32
66703;BME280;60933;46.398;-63.798;2024-01-07T00:54:51;102226.19;;;-12.29;82.24
66703;BME280;60933;46.398;-63.798;2024-01-07T00:57:22;102216.59;;;-12.35;82.05
66703;BME280;60933;46.398;-63.798;2024-01-07T00:59:52;102217.44;;;-12.34;82.04
66703;BME280;60933;46.398;-63.798;2024-01-07T01:02:20;102223.16;;;-12.35;82.50
66703;BME280;60933;46.398;-63.798;2024-01-07T01:04:49;102220.25;;;-12.40;82.84
66703;BME280;60933;46.398;-63.798;2024-01-07T01:07:17;102218.47;;;-12.41;82.78
66703;BME280;60933;46.398;-63.798;2024-01-07T01:09:47;102218.47;;;-12.41;83.13
66703;BME280;60933;46.398;-63.798;2024-01-07T01:12:17;102226.41;;;-12.45;83.13
66703;BME280;60933;46.398;-63.798;2024-01-07T01:14:56;102230.84;;;-12.51;83.32
66703;BME280;60933;46.398;-63.798;2024-01-07T01:17:25;102232.59;;;-12.50;84.14
66703;BME280;60933;46.398;-63.798;2024-01-07T01:19:53;102215.63;;;-12.54;84.13
66703;BME280;60933;46.398;-63.798;2024-01-07T01:22:22;102209.19;;;-12.52;84.24
66703;BME280;60933;46.398;-63.798;2024-01-07T01:24:50;102218.69;;;-12.57;84.98
66703;BME280;60933;46.398;-63.798;2024-01-07T01:27:21;102227.31;;;-12.53;85.41
66703;BME280;60933;46.398;-63.798;2024-01-07T01:29:49;102233.31;;;-12.51;85.34
66703;BME280;60933;46.398;-63.798;2024-01-07T01:32:18;102233.75;;;-12.55;84.92
66703;BME280;60933;46.398;-63.798;2024-01-07T01:34:46;102240.97;;;-12.59;85.20
66703;BME280;60933;46.398;-63.798;2024-01-07T01:37:15;102256.63;;;-12.60;85.12
66703;BME280;60933;46.398;-63.798;2024-01-07T01:39:43;102253.09;;;-12.62;85.01
66703;BME280;60933;46.398;-63.798;2024-01-07T01:42:11;102251.06;;;-12.66;84.92
66703;BME280;60933;46.398;-63.798;2024-01-07T01:44:39;102245.81;;;-12.69;85.16
66703;BME280;60933;46.398;-63.798;2024-01-07T01:47:08;102251.22;;;-12.73;85.30
66703;BME280;60933;46.398;-63.798;2024-01-07T01:49:36;102250.81;;;-12.78;85.82
66703;BME280;60933;46.398;-63.798;2024-01-07T01:52:06;102244.94;;;-12.78;85.95
66703;BME280;60933;46.398;-63.798;2024-01-07T01:54:35;102242.03;;;-12.92;85.77
66703;BME280;60933;46.398;-63.798;2024-01-07T01:57:04;102261.91;;;-12.83;86.18
66703;BME280;60933;46.398;-63.798;2024-01-07T01:59:33;102262.50;;;-12.85;86.44
66703;BME280;60933;46.398;-63.798;2024-01-07T02:02:02;102274.22;;;-12.84;86.10
66703;BME280;60933;46.398;-63.798;2024-01-07T02:04:31;102274.34;;;-12.92;86.79
66703;BME280;60933;46.398;-63.798;2024-01-07T02:06:59;102276.84;;;-12.92;87.25
66703;BME280;60933;46.398;-63.798;2024-01-07T02:09:27;102285.75;;;-12.94;87.25
66703;BME280;60933;46.398;-63.798;2024-01-07T02:12:04;102297.19;;;-12.96;87.76
66703;BME280;60933;46.398;-63.798;2024-01-07T02:14:33;102297.75;;;-12.98;88.02
66703;BME280;60933;46.398;-63.798;2024-01-07T02:17:03;102299.97;;;-13.01;88.46
66703;BME280;60933;46.398;-63.798;2024-01-07T02:19:32;102308.47;;;-12.99;89.06
66703;BME280;60933;46.398;-63.798;2024-01-07T02:22:06;102305.50;;;-12.95;89.73
66703;BME280;60933;46.398;-63.798;2024-01-07T02:24:34;102304.06;;;-12.93;90.18
66703;BME280;60933;46.398;-63.798;2024-01-07T02:27:03;102295.56;;;-12.95;90.92
66703;BME280;60933;46.398;-63.798;2024-01-07T02:29:31;102285.19;;;-12.91;91.87
66703;BME280;60933;46.398;-63.798;2024-01-07T02:31:59;102261.34;;;-12.89;91.96
66703;BME280;60933;46.398;-63.798;2024-01-07T02:34:27;102253.28;;;-12.86;92.57
66703;BME280;60933;46.398;-63.798;2024-01-07T02:36:55;102257.97;;;-12.81;92.48
66703;BME280;60933;46.398;-63.798;2024-01-07T02:39:23;102265.84;;;-12.76;92.91
66703;BME280;60933;46.398;-63.798;2024-01-07T02:41:52;102255.75;;;-12.69;93.97
66703;BME280;60933;46.398;-63.798;2024-01-07T02:44:20;102248.25;;;-12.60;93.93
66703;BME280;60933;46.398;-63.798;2024-01-07T02:46:48;102239.63;;;-12.55;94.03
66703;BME280;60933;46.398;-63.798;2024-01-07T02:49:16;102230.84;;;-12.51;93.86
66703;BME280;60933;46.398;-63.798;2024-01-07T02:51:44;102212.53;;;-12.52;94.03
66703;BME280;60933;46.398;-63.798;2024-01-07T02:54:16;102203.91;;;-12.47;94.27
66703;BME280;60933;46.398;-63.798;2024-01-07T02:56:45;102186.56;;;-12.36;95.13
66703;BME280;60933;46.398;-63.798;2024-01-07T02:59:13;102192.94;;;-12.21;95.41
66703;BME280;60933;46.398;-63.798;2024-01-07T03:01:41;102186.59;;;-12.08;95.67
66703;BME280;60933;46.398;-63.798;2024-01-07T03:04:11;102180.81;;;-11.99;95.10
66703;BME280;60933;46.398;-63.798;2024-01-07T03:06:40;102163.25;;;-12.00;94.92
66703;BME280;60933;46.398;-63.798;2024-01-07T03:09:08;102172.91;;;-11.84;94.64
66703;BME280;60933;46.398;-63.798;2024-01-07T03:11:41;102166.47;;;-11.82;94.38
66703;BME280;60933;46.398;-63.798;2024-01-07T03:14:10;102166.25;;;-11.75;94.23
66703;BME280;60933;46.398;-63.798;2024-01-07T03:16:38;102153.19;;;-11.72;94.50
66703;BME280;60933;46.398;-63.798;2024-01-07T03:19:06;102142.50;;;-11.71;94.69
66703;BME280;60933;46.398;-63.798;2024-01-07T03:21:34;102141.75;;;-11.70;94.70
66703;BME280;60933;46.398;-63.798;2024-01-07T03:24:02;102136.03;;;-11.69;94.35
66703;BME280;60933;46.398;-63.798;2024-01-07T03:26:31;102144.50;;;-11.67;94.09
66703;BME280;60933;46.398;-63.798;2024-01-07T03:29:00;102143.53;;;-11.69;94.30
66703;BME280;60933;46.398;-63.798;2024-01-07T03:31:29;102137.50;;;-11.71;94.37
66703;BME280;60933;46.398;-63.798;2024-01-07T03:33:58;102146.94;;;-11.78;94.01
66703;BME280;60933;46.398;-63.798;2024-01-07T03:36:26;102138.31;;;-11.81;94.08
66703;BME280;60933;46.398;-63.798;2024-01-07T03:38:54;102146.13;;;-11.87;93.59
66703;BME280;60933;46.398;-63.798;2024-01-07T03:41:22;102141.47;;;-11.93;93.63
66703;BME280;60933;46.398;-63.798;2024-01-07T03:43:50;102142.72;;;-11.98;94.28
66703;BME280;60933;46.398;-63.798;2024-01-07T03:46:20;102147.41;;;-12.01;94.20
66703;BME280;60933;46.398;-63.798;2024-01-07T03:48:48;102156.22;;;-12.04;94.35
66703;BME280;60933;46.398;-63.798;2024-01-07T03:51:17;102160.66;;;-12.11;94.48
66703;BME280;60933;46.398;-63.798;2024-01-07T03:53:45;102170.94;;;-12.16;93.87
66703;BME280;60933;46.398;-63.798;2024-01-07T03:56:13;102172.03;;;-12.23;93.49
66703;BME280;60933;46.398;-63.798;2024-01-07T03:58:41;102174.53;;;-12.32;92.88
66703;BME280;60933;46.398;-63.798;2024-01-07T04:01:09;102150.75;;;-12.47;92.25
66703;BME280;60933;46.398;-63.798;2024-01-07T04:03:37;102164.34;;;-12.44;93.11
66703;BME280;60933;46.398;-63.798;2024-01-07T04:06:09;102146.84;;;-12.54;93.40
66703;BME280;60933;46.398;-63.798;2024-01-07T04:08:37;102149.34;;;-12.54;93.45
66703;BME280;60933;46.398;-63.798;2024-01-07T04:11:05;102142.19;;;-12.60;93.65
66703;BME280;60933;46.398;-63.798;2024-01-07T04:13:33;102149.34;;;-12.63;93.88
66703;BME280;60933;46.398;-63.798;2024-01-07T04:16:01;102148.06;;;-12.68;93.64
66703;BME280;60933;46.398;-63.798;2024-01-07T04:18:29;102149.53;;;-12.70;94.25
66703;BME280;60933;46.398;-63.798;2024-01-07T04:20:57;102153.34;;;-12.74;93.74
66703;BME280;60933;46.398;-63.798;2024-01-07T04:23:25;102160.66;;;-12.75;94.49
66703;BME280;60933;46.398;-63.798;2024-01-07T04:25:53;102151.50;;;-12.85;94.64
66703;BME280;60933;46.398;-63.798;2024-01-07T04:28:21;102160.84;;;-12.82;95.03
66703;BME280;60933;46.398;-63.798;2024-01-07T04:30:49;102155.72;;;-12.84;95.22
66703;BME280;60933;46.398;-63.798;2024-01-07T04:33:18;102162.44;;;-12.83;95.66
66703;BME280;60933;46.398;-63.798;2024-01-07T04:35:46;102159.38;;;-12.80;96.44
66703;BME280;60933;46.398;-63.798;2024-01-07T04:38:14;102142.53;;;-12.83;97.25
66703;BME280;60933;46.398;-63.798;2024-01-07T04:40:42;102143.13;;;-12.77;98.16
66703;BME280;60933;46.398;-63.798;2024-01-07T04:43:10;102139.00;;;-12.76;99.08
66703;BME280;60933;46.398;-63.798;2024-01-07T04:45:38;102127.19;;;-12.79;99.39
66703;BME280;60933;46.398;-63.798;2024-01-07T04:48:07;102134.59;;;-12.70;100.00
66703;BME280;60933;46.398;-63.798;2024-01-07T04:50:35;102126.69;;;-12.66;100.00
66703;BME280;60933;46.398;-63.798;2024-01-07T04:53:03;102125.19;;;-12.64;100.00
66703;BME280;60933;46.398;-63.798;2024-01-07T04:55:31;102114.81;;;-12.60;100.00
66703;BME280;60933;46.398;-63.798;2024-01-07T04:57:59;102106.13;;;-12.54;100.00
66703;BME280;60933;46.398;-63.798;2024-01-07T05:00:29;102107.16;;;-12.52;100.00
66703;BME280;60933;46.398;-63.798;2024-01-07T05:02:57;102091.19;;;-12.46;100.00
66703;BME280;60933;46.398;-63.798;2024-01-07T05:05:25;102089.38;;;-12.38;100.00
66703;BME280;60933;46.398;-63.798;2024-01-07T05:07:53;102078.97;;;-12.34;100.00
66703;BME280;60933;46.398;-63.798;2024-01-07T05:10:21;102073.22;;;-12.33;100.00
66703;BME280;60933;46.398;-63.798;2024-01-07T05:12:49;102067.06;;;-12.28;100.00
66703;BME280;60933;46.398;-63.798;2024-01-07T05:15:17;102069.06;;;-12.23;100.00
66703;BME280;60933;46.398;-63.798;2024-01-07T05:17:45;102075.19;;;-12.20;100.00
66703;BME280;60933;46.398;-63.798;2024-01-07T05:20:15;102067.88;;;-12.18;100.00
66703;BME280;60933;46.398;-63.798;2024-01-07T05:22:44;102070.63;;;-12.15;100.00
66703;BME280;60933;46.398;-63.798;2024-01-07T05:25:12;102056.44;;;-12.16;100.00
66703;BME280;60933;46.398;-63.798;2024-01-07T05:27:40;102061.69;;;-12.13;100.00
66703;BME280;60933;46.398;-63.798;2024-01-07T05:30:08;102065.94;;;-12.12;100.00
66703;BME280;60933;46.398;-63.798;2024-01-07T05:32:37;102054.94;;;-12.14;100.00
66703;BME280;60933;46.398;-63.798;2024-01-07T05:35:05;102069.41;;;-12.10;100.00
66703;BME280;60933;46.398;-63.798;2024-01-07T05:37:33;102089.59;;;-12.07;100.00
66703;BME280;60933;46.398;-63.798;2024-01-07T05:40:01;102088.88;;;-12.06;100.00
66703;BME280;60933;46.398;-63.798;2024-01-07T05:42:29;102101.44;;;-12.04;100.00
66703;BME280;60933;46.398;-63.798;2024-01-07T05:44:57;102096.34;;;-12.06;100.00
66703;BME280;60933;46.398;-63.798;2024-01-07T05:47:25;102088.88;;;-12.06;100.00
66703;BME280;60933;46.398;-63.798;2024-01-07T05:49:53;102091.25;;;-12.07;100.00
66703;BME280;60933;46.398;-63.798;2024-01-07T05:52:21;102082.81;;;-12.18;100.00
66703;BME280;60933;46.398;-63.798;2024-01-07T05:54:49;102102.19;;;-12.05;100.00
66703;BME280;60933;46.398;-63.798;2024-01-07T05:57:18;102100.19;;;-12.10;100.00
66703;BME280;60933;46.398;-63.798;2024-01-07T05:59:46;102104.25;;;-12.10;100.00
66703;BME280;60933;46.398;-63.798;2024-01-07T06:02:18;102114.22;;;-12.10;100.00
66703;BME280;60933;46.398;-63.798;2024-01-07T06:04:46;102118.94;;;-12.13;100.00
66703;BME280;60933;46.398;-63.798;2024-01-07T06:07:14;102126.13;;;-12.16;100.00
66703;BME280;60933;46.398;-63.798;2024-01-07T06:09:43;102130.97;;;-12.18;100.00
66703;BME280;60933;46.398;-63.798;2024-01-07T06:12:11;102133.34;;;-12.19;100.00
66703;BME280;60933;46.398;-63.798;2024-01-07T06:14:39;102122.66;;;-12.18;100.00
66703;BME280;60933;46.398;-63.798;2024-01-07T06:17:07;102133.59;;;-12.16;100.00
66703;BME280;60933;46.398;-63.798;2024-01-07T06:19:35;102139.59;;;-12.14;100.00
66703;BME280;60933;46.398;-63.798;2024-01-07T06:22:03;102139.59;;;-12.14;100.00
66703;BME280;60933;46.398;-63.798;2024-01-07T06:24:31;102142.22;;;-12.13;100.00
66703;BME280;60933;46.398;-63.798;2024-01-07T06:26:59;102138.13;;;-12.12;100.00
66703;BME280;60933;46.398;-63.798;2024-01-07T06:29:27;102149.06;;;-12.10;100.00
66703;BME280;60933;46.398;-63.798;2024-01-07T06:31:55;102155.06;;;-12.08;100.00
66703;BME280;60933;46.398;-63.798;2024-01-07T06:34:24;102156.84;;;-12.07;100.00
66703;BME280;60933;46.398;-63.798;2024-01-07T06:36:52;102162.56;;;-12.08;100.00
66703;BME280;60933;46.398;-63.798;2024-01-07T06:39:20;102148.69;;;-12.15;100.00
66703;BME280;60933;46.398;-63.798;2024-01-07T06:41:48;102155.69;;;-12.11;100.00
66703;BME280;60933;46.398;-63.798;2024-01-07T06:44:16;102158.91;;;-12.12;100.00
66703;BME280;60933;46.398;-63.798;2024-01-07T06:46:45;102167.84;;;-12.14;100.00
66703;BME280;60933;46.398;-63.798;2024-01-07T06:49:13;102169.34;;;-12.16;100.00
66703;BME280;60933;46.398;-63.798;2024-01-07T06:51:41;102161.88;;;-12.16;100.00
66703;BME280;60933;46.398;-63.798;2024-01-07T06:54:09;102156.16;;;-12.15;100.00
66703;BME280;60933;46.398;-63.798;2024-01-07T06:56:41;102147.34;;;-12.11;100.00
66703;BME280;60933;46.398;-63.798;2024-01-07T06:59:08;102149.06;;;-12.10;100.00
66703;BME280;60933;46.398;-63.798;2024-01-07T07:01:38;102149.56;;;-12.14;100.00
66703;BME280;60933;46.398;-63.798;2024-01-07T07:04:06;102139.59;;;-12.14;100.00
66703;BME280;60933;46.398;-63.798;2024-01-07T07:06:34;102129.34;;;-12.17;100.00
66703;BME280;60933;46.398;-63.798;2024-01-07T07:09:02;102125.28;;;-12.17;100.00
66703;BME280;60933;46.398;-63.798;2024-01-07T07:11:31;102127.47;;;-12.20;100.00
66703;BME280;60933;46.398;-63.798;2024-01-07T07:13:59;102124.38;;;-12.17;100.00
66703;BME280;60933;46.398;-63.798;2024-01-07T07:16:27;102105.38;;;-12.26;100.00
66703;BME280;60933;46.398;-63.798;2024-01-07T07:18:55;102112.94;;;-12.15;100.00
66703;BME280;60933;46.398;-63.798;2024-01-07T07:21:23;102111.19;;;-12.16;100.00
66703;BME280;60933;46.398;-63.798;2024-01-07T07:23:51;102102.75;;;-12.18;100.00
66703;BME280;60933;46.398;-63.798;2024-01-07T07:26:19;102099.22;;;-12.20;100.00
66703;BME280;60933;46.398;-63.798;2024-01-07T07:28:47;102080.50;;;-12.26;100.00
66703;BME280;60933;46.398;-63.798;2024-01-07T07:31:15;102080.06;;;-12.21;100.00
66703;BME280;60933;46.398;-63.798;2024-01-07T07:33:44;102067.59;;;-12.21;100.00
66703;BME280;60933;46.398;-63.798;2024-01-07T07:36:12;102056.44;;;-12.16;100.00
66703;BME280;60933;46.398;-63.798;2024-01-07T07:38:40;102050.09;;;-12.13;100.00
66703;BME280;60933;46.398;-63.798;2024-01-07T07:41:09;102053.72;;;-12.09;100.00
66703;BME280;60933;46.398;-63.798;2024-01-07T07:43:37;102041.78;;;-12.13;100.00
66703;BME280;60933;46.398;-63.798;2024-01-07T07:46:05;102036.78;;;-12.13;100.00
66703;BME280;60933;46.398;-63.798;2024-01-07T07:48:33;102021.56;;;-12.16;100.00
66703;BME280;60933;46.398;-63.798;2024-01-07T07:51:01;102024.22;;;-12.15;100.00
66703;BME280;60933;46.398;-63.798;2024-01-07T07:53:30;102020.22;;;-12.13;100.00
66703;BME280;60933;46.398;-63.798;2024-01-07T07:55:58;102012.75;;;-12.13;100.00
66703;BME280;60933;46.398;-63.798;2024-01-07T07:58:26;102005.16;;;-12.14;100.00
66703;BME280;60933;46.398;-63.798;2024-01-07T08:00:54;102010.44;;;-12.11;100.00
66703;BME280;60933;46.398;-63.798;2024-01-07T08:03:23;102001.31;;;-12.11;100.00
66703;BME280;60933;46.398;-63.798;2024-01-07T08:05:51;102001.31;;;-12.11;100.00
66703;BME280;60933;46.398;-63.798;2024-01-07T08:08:19;101992.09;;;-12.12;100.00
66703;BME280;60933;46.398;-63.798;2024-01-07T08:10:47;101987.00;;;-12.13;100.00
66703;BME280;60933;46.398;-63.798;2024-01-07T08:13:15;101986.25;;;-12.12;100.00
66703;BME280;60933;46.398;-63.798;2024-01-07T08:15:44;101988.88;;;-12.11;100.00
66703;BME280;60933;46.398;-63.798;2024-01-07T08:18:12;101987.13;;;-12.12;100.00
66703;BME280;60933;46.398;-63.798;2024-01-07T08:20:40;101976.03;;;-12.15;100.00
66703;BME280;60933;46.398;-63.798;2024-01-07T08:23:08;101967.41;;;-12.19;100.00
66703;BME280;60933;46.398;-63.798;2024-01-07T08:25:37;101969.44;;;-12.15;100.00
66703;BME280;60933;46.398;-63.798;2024-01-07T08:28:05;101971.78;;;-12.16;100.00
66703;BME280;60933;46.398;-63.798;2024-01-07T08:30:33;101970.94;;;-12.17;100.00
66703;BME280;60933;46.398;-63.798;2024-01-07T08:33:02;101975.00;;;-12.17;100.00
66703;BME280;60933;46.398;-63.798;2024-01-07T08:35:30;101973.28;;;-12.18;100.00
66703;BME280;60933;46.398;-63.798;2024-01-07T08:37:58;101958.06;;;-12.21;100.00
66703;BME280;60933;46.398;-63.798;2024-01-07T08:40:26;101956.59;;;-12.19;100.00
66703;BME280;60933;46.398;-63.798;2024-01-07T08:42:54;101948.25;;;-12.20;100.00
66703;BME280;60933;46.398;-63.798;2024-01-07T08:45:22;101950.47;;;-12.23;100.00
66703;BME280;60933;46.398;-63.798;2024-01-07T08:47:50;101938.50;;;-12.27;100.00
66703;BME280;60933;46.398;-63.798;2024-01-07T08:50:18;101938.38;;;-12.29;100.00
66703;BME280;60933;46.398;-63.798;2024-01-07T08:52:47;101930.91;;;-12.29;100.00
66703;BME280;60933;46.398;-63.798;2024-01-07T08:55:15;101919.69;;;-12.34;100.00
66703;BME280;60933;46.398;-63.798;2024-01-07T08:57:43;101923.66;;;-12.36;100.00
66703;BME280;60933;46.398;-63.798;2024-01-07T09:00:13;101924.28;;;-12.38;100.00
66703;BME280;60933;46.398;-63.798;2024-01-07T09:02:41;101923.13;;;-12.42;100.00
66703;BME280;60933;46.398;-63.798;2024-01-07T09:05:10;101923.13;;;-12.42;100.00
66703;BME280;60933;46.398;-63.798;2024-01-07T09:07:39;101926.34;;;-12.43;100.00
66703;BME280;60933;46.398;-63.798;2024-01-07T09:10:08;101927.81;;;-12.45;100.00
66703;BME280;60933;46.398;-63.798;2024-01-07T09:12:41;101921.72;;;-12.49;100.00
66703;BME280;60933;46.398;-63.798;2024-01-07T09:15:09;101913.09;;;-12.52;100.00
66703;BME280;60933;46.398;-63.798;2024-01-07T09:17:38;101909.88;;;-12.51;100.00
66703;BME280;60933;46.398;-63.798;2024-01-07T09:20:09;101894.44;;;-12.58;100.00
66703;BME280;60933;46.398;-63.798;2024-01-07T09:22:38;101881.09;;;-12.58;100.00
66703;BME280;60933;46.398;-63.798;2024-01-07T09:25:06;101885.94;;;-12.60;100.00
66703;BME280;60933;46.398;-63.798;2024-01-07T09:27:35;101879.97;;;-12.62;100.00
66703;BME280;60933;46.398;-63.798;2024-01-07T09:30:03;101883.19;;;-12.63;100.00
66703;BME280;60933;46.398;-63.798;2024-01-07T09:32:31;101875.72;;;-12.63;100.00
66703;BME280;60933;46.398;-63.798;2024-01-07T09:35:04;101871.63;;;-12.62;100.00
66703;BME280;60933;46.398;-63.798;2024-01-07T09:37:33;101872.50;;;-12.62;100.00
66703;BME280;60933;46.398;-63.798;2024-01-07T09:40:03;101856.72;;;-12.62;100.00
66703;BME280;60933;46.398;-63.798;2024-01-07T09:42:34;101853.34;;;-12.63;100.00
66703;BME280;60933;46.398;-63.798;2024-01-07T09:45:03;101852.88;;;-12.59;100.00
66703;BME280;60933;46.398;-63.798;2024-01-07T09:47:35;101845.41;;;-12.59;100.00
66703;BME280;60933;46.398;-63.798;2024-01-07T09:50:03;101846.44;;;-12.57;100.00
66703;BME280;60933;46.398;-63.798;2024-01-07T09:52:33;101843.03;;;-12.57;100.00
66703;BME280;60933;46.398;-63.798;2024-01-07T09:55:03;101843.44;;;-12.52;100.00
66703;BME280;60933;46.398;-63.798;2024-01-07T09:57:34;101839.72;;;-12.47;100.00
66703;BME280;60933;46.398;-63.798;2024-01-07T10:00:02;101845.44;;;-12.48;100.00
66703;BME280;60933;46.398;-63.798;2024-01-07T10:02:30;101841.47;;;-12.46;100.00
66703;BME280;60933;46.398;-63.798;2024-01-07T10:04:58;101840.25;;;-12.41;100.00
66703;BME280;60933;46.398;-63.798;2024-01-07T10:07:26;101837.03;;;-12.40;100.00
66703;BME280;60933;46.398;-63.798;2024-01-07T10:09:54;101842.28;;;-12.37;100.00
66703;BME280;60933;46.398;-63.798;2024-01-07T10:12:24;101850.13;;;-12.32;100.00
66703;BME280;60933;46.398;-63.798;2024-01-07T10:14:52;101858.47;;;-12.32;100.00
66703;BME280;60933;46.398;-63.798;2024-01-07T10:17:19;101861.22;;;-12.29;100.00
66703;BME280;60933;46.398;-63.798;2024-01-07T10:19:51;101856.50;;;-12.26;100.00
66703;BME280;60933;46.398;-63.798;2024-01-07T10:22:19;101840.69;;;-12.26;100.00
66703;BME280;60933;46.398;-63.798;2024-01-07T10:24:47;101849.03;;;-12.26;100.00
66703;BME280;60933;46.398;-63.798;2024-01-07T10:27:16;101863.50;;;-12.21;100.00
66703;BME280;60933;46.398;-63.798;2024-01-07T10:29:47;101856.88;;;-12.21;100.00
66703;BME280;60933;46.398;-63.798;2024-01-07T10:32:19;101866.38;;;-12.17;100.00
66703;BME280;60933;46.398;-63.798;2024-01-07T10:34:47;101873.50;;;-12.11;100.00
66703;BME280;60933;46.398;-63.798;2024-01-07T10:37:16;101875.09;;;-12.12;100.00
66703;BME280;60933;46.398;-63.798;2024-01-07T10:39:44;101880.47;;;-12.07;100.00
66703;BME280;60933;46.398;-63.798;2024-01-07T10:42:13;101878.25;;;-12.04;100.00
66703;BME280;60933;46.398;-63.798;2024-01-07T10:44:41;101882.84;;;-11.98;100.00
66703;BME280;60933;46.398;-63.798;2024-01-07T10:47:13;101874.00;;;-11.95;100.00
66703;BME280;60933;46.398;-63.798;2024-01-07T10:49:44;101871.78;;;-11.91;100.00
66703;BME280;60933;46.398;-63.798;2024-01-07T10:52:15;101875.38;;;-11.88;100.00
66703;BME280;60933;46.398;-63.798;2024-01-07T10:54:44;101884.72;;;-11.85;100.00
66703;BME280;60933;46.398;-63.798;2024-01-07T10:57:45;101886.75;;;-11.81;100.00
66703;BME280;60933;46.398;-63.798;2024-01-07T11:00:16;101889.75;;;-11.75;100.00
66703;BME280;60933;46.398;-63.798;2024-01-07T11:05:47;101882.78;;;-11.69;100.00
66703;BME280;60933;46.398;-63.798;2024-01-07T11:08:30;101882.16;;;-11.66;100.00
66703;BME280;60933;46.398;-63.798;2024-01-07T11:11:16;101874.97;;;-11.63;100.00
66703;BME280;60933;46.398;-63.798;2024-01-07T11:13:45;101879.94;;;-11.63;100.00
66703;BME280;60933;46.398;-63.798;2024-01-07T11:16:42;101882.94;;;-11.57;100.00
66703;BME280;60933;46.398;-63.798;2024-01-07T11:19:09;101876.47;;;-11.55;100.00
66703;BME280;60933;46.398;-63.798;2024-01-07T11:21:40;101872.34;;;-11.54;100.00
66703;BME280;60933;46.398;-63.798;2024-01-07T11:24:08;101875.22;;;-11.50;100.00
66703;BME280;60933;46.398;-63.798;2024-01-07T11:26:36;101874.59;;;-11.47;100.00
66703;BME280;60933;46.398;-63.798;2024-01-07T11:29:08;101875.88;;;-11.42;100.00
66703;BME280;60933;46.398;-63.798;2024-01-07T11:34:08;101870.63;;;-11.35;100.00
66703;BME280;60933;46.398;-63.798;2024-01-07T11:36:37;101880.84;;;-11.32;100.00
66703;BME280;60933;46.398;-63.798;2024-01-07T11:39:06;101875.84;;;-11.32;100.00
66703;BME280;60933;46.398;-63.798;2024-01-07T11:41:37;101882.13;;;-11.26;100.00
66703;BME280;60933;46.398;-63.798;2024-01-07T11:44:07;101872.13;;;-11.26;100.00
66703;BME280;60933;46.398;-63.798;2024-01-07T11:46:38;101871.63;;;-11.22;100.00
66703;BME280;60933;46.398;-63.798;2024-01-07T11:49:08;101864.03;;;-11.24;100.00
66703;BME280;60933;46.398;-63.798;2024-01-07T11:51:36;101866.75;;;-11.21;100.00
66703;BME280;60933;46.398;-63.798;2024-01-07T11:54:05;101872.75;;;-11.19;100.00
66703;BME280;60933;46.398;-63.798;2024-01-07T11:56:34;101861.03;;;-11.20;100.00
66703;BME280;60933;46.398;-63.798;2024-01-07T11:59:02;101871.38;;;-11.15;100.00
66703;BME280;60933;46.398;-63.798;2024-01-07T12:01:30;101871.50;;;-11.14;100.00
66703;BME280;60933;46.398;-63.798;2024-01-07T12:03:58;101880.88;;;-11.11;100.00
66703;BME280;60933;46.398;-63.798;2024-01-07T12:06:27;101872.88;;;-11.07;100.00
66703;BME280;60933;46.398;-63.798;2024-01-07T12:08:56;101868.91;;;-11.05;100.00
66703;BME280;60933;46.398;-63.798;2024-01-07T12:11:24;101872.50;;;-11.01;100.00
66703;BME280;60933;46.398;-63.798;2024-01-07T12:13:52;101877.72;;;-10.98;100.00
66703;BME280;60933;46.398;-63.798;2024-01-07T12:16:20;101882.34;;;-10.92;100.00
66703;BME280;60933;46.398;-63.798;2024-01-07T12:18:48;101886.06;;;-10.87;100.00
66703;BME280;60933;46.398;-63.798;2024-01-07T12:21:20;101877.09;;;-10.85;100.00
66703;BME280;60933;46.398;-63.798;2024-01-07T12:23:51;101880.81;;;-10.80;100.00
66703;BME280;60933;46.398;-63.798;2024-01-07T12:26:20;101882.81;;;-10.76;100.00
66703;BME280;60933;46.398;-63.798;2024-01-07T12:28:57;101867.84;;;-10.76;100.00